sensor_id;sensor_type;location;lat;lon;timestamp;P1;durP1;ratioP1;P2;durP2;ratioP2
69900;SDS011;57183;50.930;5.406;2022-10-22T00:00:10;7.15;;;3.45;;
69900;SDS011;57183;50.930;5.406;2022-10-22T00:02:38;3.85;;;3.03;;
69900;SDS011;57183;50.930;5.406;2022-10-22T00:05:04;6.75;;;3.05;;
69900;SDS011;57183;50.930;5.406;2022-10-22T00:07:30;4.75;;;3.85;;
69900;SDS011;57183;50.930;5.406;2022-10-22T00:09:56;5.88;;;4.82;;
69900;SDS011;57183;50.930;5.406;2022-10-22T00:12:22;12.55;;;5.03;;
69900;SDS011;57183;50.930;5.406;2022-10-22T00:14:48;5.07;;;4.10;;
69900;SDS011;57183;50.930;5.406;2022-10-22T00:17:16;4.97;;;3.65;;
69900;SDS011;57183;50.930;5.406;2022-10-22T00:19:41;6.13;;;4.32;;
69900;SDS011;57183;50.930;5.406;2022-10-22T00:22:08;8.65;;;5.40;;
69900;SDS011;57183;50.930;5.406;2022-10-22T00:24:34;8.10;;;5.75;;
69900;SDS011;57183;50.930;5.406;2022-10-22T00:27:01;8.30;;;5.25;;
69900;SDS011;57183;50.930;5.406;2022-10-22T00:29:27;9.20;;;5.10;;
69900;SDS011;57183;50.930;5.406;2022-10-22T00:31:53;9.30;;;4.80;;
69900;SDS011;57183;50.930;5.406;2022-10-22T00:34:19;8.60;;;4.72;;
69900;SDS011;57183;50.930;5.406;2022-10-22T00:36:49;6.80;;;3.53;;
69900;SDS011;57183;50.930;5.406;2022-10-22T00:39:16;6.32;;;4.03;;
69900;SDS011;57183;50.930;5.406;2022-10-22T00:41:44;7.57;;;4.20;;
69900;SDS011;57183;50.930;5.406;2022-10-22T00:47:15;9.35;;;4.93;;
69900;SDS011;57183;50.930;5.406;2022-10-22T00:49:41;7.53;;;5.47;;
69900;SDS011;57183;50.930;5.406;2022-10-22T00:52:08;9.05;;;5.22;;
69900;SDS011;57183;50.930;5.406;2022-10-22T00:54:34;5.93;;;4.50;;
69900;SDS011;57183;50.930;5.406;2022-10-22T00:57:00;8.10;;;4.97;;
69900;SDS011;57183;50.930;5.406;2022-10-22T00:59:26;4.75;;;4.03;;
69900;SDS011;57183;50.930;5.406;2022-10-22T01:01:53;6.07;;;3.63;;
69900;SDS011;57183;50.930;5.406;2022-10-22T01:04:19;8.20;;;4.85;;
69900;SDS011;57183;50.930;5.406;2022-10-22T01:06:45;9.82;;;5.13;;
69900;SDS011;57183;50.930;5.406;2022-10-22T01:18:13;11.35;;;4.35;;
69900;SDS011;57183;50.930;5.406;2022-10-22T01:23:02;10.13;;;3.58;;
69900;SDS011;57183;50.930;5.406;2022-10-22T01:25:54;7.28;;;4.15;;
69900;SDS011;57183;50.930;5.406;2022-10-22T01:28:47;12.57;;;4.03;;
69900;SDS011;57183;50.930;5.406;2022-10-22T01:31:21;7.20;;;4.30;;
69900;SDS011;57183;50.930;5.406;2022-10-22T01:33:49;4.63;;;3.40;;
69900;SDS011;57183;50.930;5.406;2022-10-22T01:36:17;8.98;;;3.97;;
69900;SDS011;57183;50.930;5.406;2022-10-22T01:38:43;4.75;;;3.75;;
69900;SDS011;57183;50.930;5.406;2022-10-22T01:41:10;7.47;;;4.22;;
69900;SDS011;57183;50.930;5.406;2022-10-22T01:43:36;10.45;;;4.75;;
69900;SDS011;57183;50.930;5.406;2022-10-22T01:46:02;13.98;;;4.07;;
69900;SDS011;57183;50.930;5.406;2022-10-22T01:56:31;9.70;;;3.67;;
69900;SDS011;57183;50.930;5.406;2022-10-22T02:05:29;12.23;;;4.20;;
69900;SDS011;57183;50.930;5.406;2022-10-22T02:08:01;11.57;;;4.30;;
69900;SDS011;57183;50.930;5.406;2022-10-22T02:10:34;7.00;;;3.97;;
69900;SDS011;57183;50.930;5.406;2022-10-22T02:13:02;9.93;;;3.45;;
69900;SDS011;57183;50.930;5.406;2022-10-22T02:15:31;7.53;;;3.67;;
69900;SDS011;57183;50.930;5.406;2022-10-22T02:17:59;7.00;;;3.80;;
69900;SDS011;57183;50.930;5.406;2022-10-22T02:20:30;6.75;;;3.88;;
69900;SDS011;57183;50.930;5.406;2022-10-22T02:22:59;10.02;;;4.50;;
69900;SDS011;57183;50.930;5.406;2022-10-22T02:25:33;5.45;;;3.67;;
69900;SDS011;57183;50.930;5.406;2022-10-22T02:30:45;6.20;;;4.05;;
69900;SDS011;57183;50.930;5.406;2022-10-22T02:33:17;9.60;;;4.40;;
69900;SDS011;57183;50.930;5.406;2022-10-22T02:35:46;12.45;;;4.57;;
69900;SDS011;57183;50.930;5.406;2022-10-22T02:38:13;6.10;;;3.70;;
69900;SDS011;57183;50.930;5.406;2022-10-22T02:40:39;15.63;;;4.35;;
69900;SDS011;57183;50.930;5.406;2022-10-22T02:43:05;10.18;;;3.65;;
69900;SDS011;57183;50.930;5.406;2022-10-22T02:45:31;5.97;;;3.53;;
69900;SDS011;57183;50.930;5.406;2022-10-22T02:47:58;13.10;;;3.85;;
69900;SDS011;57183;50.930;5.406;2022-10-22T02:50:24;12.88;;;4.43;;
69900;SDS011;57183;50.930;5.406;2022-10-22T02:52:50;8.88;;;4.07;;
69900;SDS011;57183;50.930;5.406;2022-10-22T02:55:16;7.80;;;4.18;;
69900;SDS011;57183;50.930;5.406;2022-10-22T02:57:41;6.50;;;4.07;;
69900;SDS011;57183;50.930;5.406;2022-10-22T03:00:07;10.75;;;4.45;;
69900;SDS011;57183;50.930;5.406;2022-10-22T03:02:35;5.93;;;3.50;;
69900;SDS011;57183;50.930;5.406;2022-10-22T03:05:01;8.02;;;4.45;;
69900;SDS011;57183;50.930;5.406;2022-10-22T03:07:27;7.85;;;3.67;;
69900;SDS011;57183;50.930;5.406;2022-10-22T03:09:52;7.10;;;3.97;;
69900;SDS011;57183;50.930;5.406;2022-10-22T03:12:18;5.05;;;3.33;;
69900;SDS011;57183;50.930;5.406;2022-10-22T03:14:44;10.60;;;4.13;;
69900;SDS011;57183;50.930;5.406;2022-10-22T03:17:09;11.63;;;4.10;;
69900;SDS011;57183;50.930;5.406;2022-10-22T03:19:35;7.32;;;4.05;;
69900;SDS011;57183;50.930;5.406;2022-10-22T03:22:01;7.72;;;4.45;;
69900;SDS011;57183;50.930;5.406;2022-10-22T03:24:49;8.55;;;3.67;;
69900;SDS011;57183;50.930;5.406;2022-10-22T03:27:19;8.85;;;4.18;;
69900;SDS011;57183;50.930;5.406;2022-10-22T03:29:46;10.15;;;4.75;;
69900;SDS011;57183;50.930;5.406;2022-10-22T03:32:14;11.27;;;4.15;;
69900;SDS011;57183;50.930;5.406;2022-10-22T03:34:39;8.05;;;4.82;;
69900;SDS011;57183;50.930;5.406;2022-10-22T03:37:05;10.77;;;4.18;;
69900;SDS011;57183;50.930;5.406;2022-10-22T03:39:31;8.23;;;4.25;;
69900;SDS011;57183;50.930;5.406;2022-10-22T03:41:59;10.90;;;4.10;;
69900;SDS011;57183;50.930;5.406;2022-10-22T03:44:25;8.48;;;4.40;;
69900;SDS011;57183;50.930;5.406;2022-10-22T03:46:52;8.63;;;4.53;;
69900;SDS011;57183;50.930;5.406;2022-10-22T03:49:17;7.20;;;4.15;;
69900;SDS011;57183;50.930;5.406;2022-10-22T03:51:43;11.50;;;4.40;;
69900;SDS011;57183;50.930;5.406;2022-10-22T03:54:09;11.85;;;3.60;;
69900;SDS011;57183;50.930;5.406;2022-10-22T03:56:34;9.77;;;4.20;;
69900;SDS011;57183;50.930;5.406;2022-10-22T03:59:00;5.78;;;3.85;;
69900;SDS011;57183;50.930;5.406;2022-10-22T04:01:26;8.10;;;3.50;;
69900;SDS011;57183;50.930;5.406;2022-10-22T04:03:53;9.38;;;4.15;;
69900;SDS011;57183;50.930;5.406;2022-10-22T04:06:20;10.40;;;4.00;;
69900;SDS011;57183;50.930;5.406;2022-10-22T04:08:46;8.05;;;4.25;;
69900;SDS011;57183;50.930;5.406;2022-10-22T04:11:12;7.95;;;3.72;;
69900;SDS011;57183;50.930;5.406;2022-10-22T04:13:39;9.32;;;4.03;;
69900;SDS011;57183;50.930;5.406;2022-10-22T04:16:08;7.72;;;3.20;;
69900;SDS011;57183;50.930;5.406;2022-10-22T04:18:35;10.52;;;3.50;;
69900;SDS011;57183;50.930;5.406;2022-10-22T04:21:02;7.97;;;3.33;;
69900;SDS011;57183;50.930;5.406;2022-10-22T04:23:29;6.38;;;3.42;;
69900;SDS011;57183;50.930;5.406;2022-10-22T04:26:02;10.32;;;3.35;;
69900;SDS011;57183;50.930;5.406;2022-10-22T04:28:31;18.05;;;3.30;;
69900;SDS011;57183;50.930;5.406;2022-10-22T04:30:58;8.60;;;3.35;;
69900;SDS011;57183;50.930;5.406;2022-10-22T04:33:23;9.70;;;3.58;;
69900;SDS011;57183;50.930;5.406;2022-10-22T04:35:49;8.32;;;3.25;;
69900;SDS011;57183;50.930;5.406;2022-10-22T04:38:15;14.85;;;4.50;;
69900;SDS011;57183;50.930;5.406;2022-10-22T04:40:40;6.20;;;2.85;;
69900;SDS011;57183;50.930;5.406;2022-10-22T04:43:06;6.70;;;2.92;;
69900;SDS011;57183;50.930;5.406;2022-10-22T04:45:33;7.05;;;2.97;;
69900;SDS011;57183;50.930;5.406;2022-10-22T04:47:59;4.85;;;2.40;;
69900;SDS011;57183;50.930;5.406;2022-10-22T04:50:24;12.50;;;3.60;;
69900;SDS011;57183;50.930;5.406;2022-10-22T04:52:50;8.68;;;3.00;;
69900;SDS011;57183;50.930;5.406;2022-10-22T04:55:16;6.97;;;2.78;;
69900;SDS011;57183;50.930;5.406;2022-10-22T04:57:41;7.07;;;2.53;;
69900;SDS011;57183;50.930;5.406;2022-10-22T05:00:07;4.78;;;2.70;;
69900;SDS011;57183;50.930;5.406;2022-10-22T05:02:33;13.98;;;3.03;;
69900;SDS011;57183;50.930;5.406;2022-10-22T05:04:59;5.53;;;2.08;;
69900;SDS011;57183;50.930;5.406;2022-10-22T05:07:25;8.85;;;2.55;;
69900;SDS011;57183;50.930;5.406;2022-10-22T05:09:50;6.28;;;2.25;;
69900;SDS011;57183;50.930;5.406;2022-10-22T05:12:17;10.52;;;1.90;;
69900;SDS011;57183;50.930;5.406;2022-10-22T05:14:43;6.82;;;1.92;;
69900;SDS011;57183;50.930;5.406;2022-10-22T05:17:08;5.97;;;2.05;;
69900;SDS011;57183;50.930;5.406;2022-10-22T05:19:34;16.30;;;3.08;;
69900;SDS011;57183;50.930;5.406;2022-10-22T05:22:00;9.05;;;2.17;;
69900;SDS011;57183;50.930;5.406;2022-10-22T05:24:28;5.05;;;1.98;;
69900;SDS011;57183;50.930;5.406;2022-10-22T05:26:56;9.57;;;2.30;;
69900;SDS011;57183;50.930;5.406;2022-10-22T05:29:22;9.60;;;2.72;;
69900;SDS011;57183;50.930;5.406;2022-10-22T05:31:49;5.47;;;2.25;;
69900;SDS011;57183;50.930;5.406;2022-10-22T05:34:15;8.30;;;1.60;;
69900;SDS011;57183;50.930;5.406;2022-10-22T05:36:41;4.22;;;1.70;;
69900;SDS011;57183;50.930;5.406;2022-10-22T05:39:06;7.47;;;2.35;;
69900;SDS011;57183;50.930;5.406;2022-10-22T05:41:33;12.77;;;2.33;;
69900;SDS011;57183;50.930;5.406;2022-10-22T05:44:01;1.73;;;1.17;;
69900;SDS011;57183;50.930;5.406;2022-10-22T05:46:28;8.80;;;2.13;;
69900;SDS011;57183;50.930;5.406;2022-10-22T05:48:57;4.88;;;1.92;;
69900;SDS011;57183;50.930;5.406;2022-10-22T05:51:25;9.90;;;1.70;;
69900;SDS011;57183;50.930;5.406;2022-10-22T05:53:53;5.65;;;1.60;;
69900;SDS011;57183;50.930;5.406;2022-10-22T05:56:20;10.25;;;3.20;;
69900;SDS011;57183;50.930;5.406;2022-10-22T05:58:46;9.45;;;1.88;;
69900;SDS011;57183;50.930;5.406;2022-10-22T06:01:16;7.10;;;2.47;;
69900;SDS011;57183;50.930;5.406;2022-10-22T06:03:51;6.35;;;1.55;;
69900;SDS011;57183;50.930;5.406;2022-10-22T06:08:59;9.55;;;2.10;;
69900;SDS011;57183;50.930;5.406;2022-10-22T06:11:28;6.82;;;1.88;;
69900;SDS011;57183;50.930;5.406;2022-10-22T06:13:54;7.45;;;2.13;;
69900;SDS011;57183;50.930;5.406;2022-10-22T06:16:20;4.28;;;1.58;;
69900;SDS011;57183;50.930;5.406;2022-10-22T06:18:45;6.68;;;1.30;;
69900;SDS011;57183;50.930;5.406;2022-10-22T06:21:12;10.35;;;1.67;;
69900;SDS011;57183;50.930;5.406;2022-10-22T06:23:39;8.38;;;1.27;;
69900;SDS011;57183;50.930;5.406;2022-10-22T06:26:06;5.43;;;2.03;;
69900;SDS011;57183;50.930;5.406;2022-10-22T06:28:33;11.65;;;2.65;;
69900;SDS011;57183;50.930;5.406;2022-10-22T06:31:00;4.57;;;1.33;;
69900;SDS011;57183;50.930;5.406;2022-10-22T06:33:27;6.80;;;1.58;;
69900;SDS011;57183;50.930;5.406;2022-10-22T06:36:02;6.35;;;1.77;;
69900;SDS011;57183;50.930;5.406;2022-10-22T06:38:39;5.95;;;2.28;;
69900;SDS011;57183;50.930;5.406;2022-10-22T06:41:06;8.18;;;1.45;;
69900;SDS011;57183;50.930;5.406;2022-10-22T06:43:36;4.65;;;1.70;;
69900;SDS011;57183;50.930;5.406;2022-10-22T06:46:04;5.07;;;1.30;;
69900;SDS011;57183;50.930;5.406;2022-10-22T06:48:31;7.03;;;1.88;;
69900;SDS011;57183;50.930;5.406;2022-10-22T06:51:00;5.68;;;1.60;;
69900;SDS011;57183;50.930;5.406;2022-10-22T06:53:27;4.70;;;1.27;;
69900;SDS011;57183;50.930;5.406;2022-10-22T06:55:52;5.93;;;1.48;;
69900;SDS011;57183;50.930;5.406;2022-10-22T06:58:18;8.75;;;1.60;;
69900;SDS011;57183;50.930;5.406;2022-10-22T07:00:44;5.70;;;1.67;;
69900;SDS011;57183;50.930;5.406;2022-10-22T07:03:13;8.43;;;2.17;;
69900;SDS011;57183;50.930;5.406;2022-10-22T07:05:40;5.90;;;1.77;;
69900;SDS011;57183;50.930;5.406;2022-10-22T07:08:06;6.40;;;1.20;;
69900;SDS011;57183;50.930;5.406;2022-10-22T07:10:32;5.22;;;1.55;;
69900;SDS011;57183;50.930;5.406;2022-10-22T07:12:58;4.03;;;1.70;;
69900;SDS011;57183;50.930;5.406;2022-10-22T07:15:23;7.22;;;2.05;;
69900;SDS011;57183;50.930;5.406;2022-10-22T07:17:49;4.90;;;1.73;;
69900;SDS011;57183;50.930;5.406;2022-10-22T07:20:16;6.10;;;1.42;;
69900;SDS011;57183;50.930;5.406;2022-10-22T07:22:43;10.23;;;1.60;;
69900;SDS011;57183;50.930;5.406;2022-10-22T07:25:09;6.28;;;2.08;;
69900;SDS011;57183;50.930;5.406;2022-10-22T07:27:35;5.70;;;1.20;;
69900;SDS011;57183;50.930;5.406;2022-10-22T07:30:01;9.27;;;1.70;;
69900;SDS011;57183;50.930;5.406;2022-10-22T07:32:27;5.57;;;1.50;;
69900;SDS011;57183;50.930;5.406;2022-10-22T07:34:52;5.75;;;1.73;;
69900;SDS011;57183;50.930;5.406;2022-10-22T07:37:18;10.43;;;1.65;;
69900;SDS011;57183;50.930;5.406;2022-10-22T07:39:46;4.72;;;1.38;;
69900;SDS011;57183;50.930;5.406;2022-10-22T07:42:12;9.32;;;1.95;;
69900;SDS011;57183;50.930;5.406;2022-10-22T07:44:38;3.50;;;1.42;;
69900;SDS011;57183;50.930;5.406;2022-10-22T07:47:03;5.45;;;1.13;;
69900;SDS011;57183;50.930;5.406;2022-10-22T07:49:29;10.55;;;1.30;;
69900;SDS011;57183;50.930;5.406;2022-10-22T07:51:55;6.78;;;1.40;;
69900;SDS011;57183;50.930;5.406;2022-10-22T07:54:21;3.85;;;1.15;;
69900;SDS011;57183;50.930;5.406;2022-10-22T07:56:47;5.47;;;1.83;;
69900;SDS011;57183;50.930;5.406;2022-10-22T07:59:13;9.13;;;1.38;;
69900;SDS011;57183;50.930;5.406;2022-10-22T08:01:38;9.68;;;1.67;;
69900;SDS011;57183;50.930;5.406;2022-10-22T08:04:04;4.78;;;1.77;;
69900;SDS011;57183;50.930;5.406;2022-10-22T08:06:32;7.32;;;1.48;;
69900;SDS011;57183;50.930;5.406;2022-10-22T08:08:58;7.35;;;1.80;;
69900;SDS011;57183;50.930;5.406;2022-10-22T08:11:24;3.20;;;1.20;;
69900;SDS011;57183;50.930;5.406;2022-10-22T08:13:51;4.90;;;0.85;;
69900;SDS011;57183;50.930;5.406;2022-10-22T08:16:17;5.40;;;1.20;;
69900;SDS011;57183;50.930;5.406;2022-10-22T08:18:42;5.20;;;1.17;;
69900;SDS011;57183;50.930;5.406;2022-10-22T08:21:09;5.10;;;1.25;;
69900;SDS011;57183;50.930;5.406;2022-10-22T08:23:35;3.63;;;0.70;;
69900;SDS011;57183;50.930;5.406;2022-10-22T08:26:01;3.92;;;1.60;;
69900;SDS011;57183;50.930;5.406;2022-10-22T08:28:27;8.07;;;1.05;;
69900;SDS011;57183;50.930;5.406;2022-10-22T08:30:53;3.83;;;1.10;;
69900;SDS011;57183;50.930;5.406;2022-10-22T08:33:19;5.90;;;1.15;;
69900;SDS011;57183;50.930;5.406;2022-10-22T08:35:47;6.35;;;1.27;;
69900;SDS011;57183;50.930;5.406;2022-10-22T08:38:14;6.68;;;1.13;;
69900;SDS011;57183;50.930;5.406;2022-10-22T08:40:39;4.85;;;1.30;;
69900;SDS011;57183;50.930;5.406;2022-10-22T08:48:36;5.25;;;1.13;;
69900;SDS011;57183;50.930;5.406;2022-10-22T08:53:50;7.28;;;1.40;;
69900;SDS011;57183;50.930;5.406;2022-10-22T08:56:29;1.83;;;0.80;;
69900;SDS011;57183;50.930;5.406;2022-10-22T08:59:00;4.20;;;1.10;;
69900;SDS011;57183;50.930;5.406;2022-10-22T09:01:34;4.38;;;0.90;;
69900;SDS011;57183;50.930;5.406;2022-10-22T09:04:05;2.95;;;1.00;;
69900;SDS011;57183;50.930;5.406;2022-10-22T09:06:49;3.22;;;0.85;;
69900;SDS011;57183;50.930;5.406;2022-10-22T09:09:20;5.30;;;1.30;;
69900;SDS011;57183;50.930;5.406;2022-10-22T09:11:50;5.18;;;0.93;;
69900;SDS011;57183;50.930;5.406;2022-10-22T09:14:19;3.25;;;0.88;;
69900;SDS011;57183;50.930;5.406;2022-10-22T09:22:20;3.67;;;0.88;;
69900;SDS011;57183;50.930;5.406;2022-10-22T09:24:58;3.15;;;1.02;;
69900;SDS011;57183;50.930;5.406;2022-10-22T09:27:35;4.00;;;0.80;;
69900;SDS011;57183;50.930;5.406;2022-10-22T09:30:01;4.10;;;0.90;;
69900;SDS011;57183;50.930;5.406;2022-10-22T09:32:27;4.47;;;0.90;;
69900;SDS011;57183;50.930;5.406;2022-10-22T09:34:56;3.45;;;1.20;;
69900;SDS011;57183;50.930;5.406;2022-10-22T09:37:26;4.43;;;0.98;;
69900;SDS011;57183;50.930;5.406;2022-10-22T09:39:54;6.45;;;1.10;;
69900;SDS011;57183;50.930;5.406;2022-10-22T09:42:21;12.57;;;1.02;;
69900;SDS011;57183;50.930;5.406;2022-10-22T09:44:53;5.55;;;0.90;;
69900;SDS011;57183;50.930;5.406;2022-10-22T09:47:40;3.65;;;0.90;;
69900;SDS011;57183;50.930;5.406;2022-10-22T09:50:17;8.30;;;1.48;;
69900;SDS011;57183;50.930;5.406;2022-10-22T09:55:36;6.07;;;1.17;;
69900;SDS011;57183;50.930;5.406;2022-10-22T09:58:03;8.13;;;1.10;;
69900;SDS011;57183;50.930;5.406;2022-10-22T10:00:29;6.82;;;1.17;;
69900;SDS011;57183;50.930;5.406;2022-10-22T10:02:56;4.32;;;1.20;;
69900;SDS011;57183;50.930;5.406;2022-10-22T10:05:27;3.47;;;0.85;;
69900;SDS011;57183;50.930;5.406;2022-10-22T10:07:55;4.60;;;0.85;;
69900;SDS011;57183;50.930;5.406;2022-10-22T10:10:31;4.00;;;1.02;;
69900;SDS011;57183;50.930;5.406;2022-10-22T10:13:19;3.22;;;1.10;;
69900;SDS011;57183;50.930;5.406;2022-10-22T10:16:03;4.28;;;0.77;;
69900;SDS011;57183;50.930;5.406;2022-10-22T10:26:34;3.35;;;0.70;;
69900;SDS011;57183;50.930;5.406;2022-10-22T10:37:20;7.35;;;1.00;;
69900;SDS011;57183;50.930;5.406;2022-10-22T10:42:35;5.60;;;0.98;;
69900;SDS011;57183;50.930;5.406;2022-10-22T10:47:52;3.15;;;0.70;;
69900;SDS011;57183;50.930;5.406;2022-10-22T10:56:20;3.28;;;0.70;;
69900;SDS011;57183;50.930;5.406;2022-10-22T11:04:40;5.25;;;0.68;;
69900;SDS011;57183;50.930;5.406;2022-10-22T11:07:12;3.63;;;0.82;;
69900;SDS011;57183;50.930;5.406;2022-10-22T11:09:44;3.05;;;0.70;;
69900;SDS011;57183;50.930;5.406;2022-10-22T11:12:16;2.05;;;0.98;;
69900;SDS011;57183;50.930;5.406;2022-10-22T11:17:28;4.75;;;0.90;;
69900;SDS011;57183;50.930;5.406;2022-10-22T11:20:06;6.47;;;1.00;;
69900;SDS011;57183;50.930;5.406;2022-10-22T11:22:52;7.78;;;0.75;;
69900;SDS011;57183;50.930;5.406;2022-10-22T11:25:28;3.53;;;0.80;;
69900;SDS011;57183;50.930;5.406;2022-10-22T11:28:00;6.75;;;1.08;;
69900;SDS011;57183;50.930;5.406;2022-10-22T11:30:33;6.20;;;1.40;;
69900;SDS011;57183;50.930;5.406;2022-10-22T11:33:02;3.97;;;1.00;;
69900;SDS011;57183;50.930;5.406;2022-10-22T11:35:34;5.45;;;1.20;;
69900;SDS011;57183;50.930;5.406;2022-10-22T11:38:03;5.70;;;0.93;;
69900;SDS011;57183;50.930;5.406;2022-10-22T11:41:05;4.88;;;0.95;;
69900;SDS011;57183;50.930;5.406;2022-10-22T11:45:56;3.25;;;0.70;;
69900;SDS011;57183;50.930;5.406;2022-10-22T11:48:27;3.35;;;0.60;;
69900;SDS011;57183;50.930;5.406;2022-10-22T11:51:00;4.65;;;0.90;;
69900;SDS011;57183;50.930;5.406;2022-10-22T11:53:36;4.93;;;0.70;;
69900;SDS011;57183;50.930;5.406;2022-10-22T11:58:49;4.75;;;0.70;;
69900;SDS011;57183;50.930;5.406;2022-10-22T12:01:25;2.60;;;0.68;;
69900;SDS011;57183;50.930;5.406;2022-10-22T12:06:22;3.38;;;0.68;;
69900;SDS011;57183;50.930;5.406;2022-10-22T12:11:34;2.67;;;0.82;;
69900;SDS011;57183;50.930;5.406;2022-10-22T12:19:37;3.60;;;0.75;;
69900;SDS011;57183;50.930;5.406;2022-10-22T12:24:31;4.05;;;0.80;;
69900;SDS011;57183;50.930;5.406;2022-10-22T12:27:00;3.55;;;0.75;;
69900;SDS011;57183;50.930;5.406;2022-10-22T12:29:26;2.90;;;0.82;;
69900;SDS011;57183;50.930;5.406;2022-10-22T12:31:55;4.03;;;1.10;;
69900;SDS011;57183;50.930;5.406;2022-10-22T12:34:22;2.78;;;0.65;;
69900;SDS011;57183;50.930;5.406;2022-10-22T12:36:49;2.70;;;1.13;;
69900;SDS011;57183;50.930;5.406;2022-10-22T12:39:18;4.15;;;0.90;;
69900;SDS011;57183;50.930;5.406;2022-10-22T12:41:45;6.20;;;1.60;;
69900;SDS011;57183;50.930;5.406;2022-10-22T12:44:13;3.60;;;0.88;;
69900;SDS011;57183;50.930;5.406;2022-10-22T12:46:41;1.65;;;0.80;;
69900;SDS011;57183;50.930;5.406;2022-10-22T12:49:22;8.00;;;1.20;;
69900;SDS011;57183;50.930;5.406;2022-10-22T12:51:55;2.75;;;0.90;;
69900;SDS011;57183;50.930;5.406;2022-10-22T12:54:29;3.03;;;1.10;;
69900;SDS011;57183;50.930;5.406;2022-10-22T12:56:57;2.42;;;0.77;;
69900;SDS011;57183;50.930;5.406;2022-10-22T12:59:25;3.90;;;1.00;;
69900;SDS011;57183;50.930;5.406;2022-10-22T13:01:57;5.25;;;1.30;;
69900;SDS011;57183;50.930;5.406;2022-10-22T13:07:12;4.03;;;0.80;;
69900;SDS011;57183;50.930;5.406;2022-10-22T13:12:23;2.20;;;0.60;;
69900;SDS011;57183;50.930;5.406;2022-10-22T13:14:50;6.32;;;0.80;;
69900;SDS011;57183;50.930;5.406;2022-10-22T13:17:17;4.47;;;1.25;;
69900;SDS011;57183;50.930;5.406;2022-10-22T13:27:42;3.28;;;0.80;;
69900;SDS011;57183;50.930;5.406;2022-10-22T13:33:05;3.00;;;0.75;;
69900;SDS011;57183;50.930;5.406;2022-10-22T13:38:19;5.88;;;0.90;;
69900;SDS011;57183;50.930;5.406;2022-10-22T13:40:46;1.52;;;0.50;;
69900;SDS011;57183;50.930;5.406;2022-10-22T13:43:12;2.38;;;0.70;;
69900;SDS011;57183;50.930;5.406;2022-10-22T13:45:38;6.13;;;0.70;;
69900;SDS011;57183;50.930;5.406;2022-10-22T13:48:04;1.73;;;0.45;;
69900;SDS011;57183;50.930;5.406;2022-10-22T13:50:33;3.03;;;0.68;;
69900;SDS011;57183;50.930;5.406;2022-10-22T13:52:59;3.25;;;0.75;;
69900;SDS011;57183;50.930;5.406;2022-10-22T13:55:25;1.75;;;0.60;;
69900;SDS011;57183;50.930;5.406;2022-10-22T13:57:59;2.17;;;0.82;;
69900;SDS011;57183;50.930;5.406;2022-10-22T14:00:31;2.85;;;0.63;;
69900;SDS011;57183;50.930;5.406;2022-10-22T14:02:57;2.28;;;0.60;;
69900;SDS011;57183;50.930;5.406;2022-10-22T14:05:23;4.95;;;0.82;;
69900;SDS011;57183;50.930;5.406;2022-10-22T14:07:50;6.00;;;0.80;;
69900;SDS011;57183;50.930;5.406;2022-10-22T14:12:42;3.33;;;0.43;;
69900;SDS011;57183;50.930;5.406;2022-10-22T14:15:09;3.17;;;0.80;;
69900;SDS011;57183;50.930;5.406;2022-10-22T14:17:40;2.83;;;1.00;;
69900;SDS011;57183;50.930;5.406;2022-10-22T14:20:12;3.15;;;0.95;;
69900;SDS011;57183;50.930;5.406;2022-10-22T14:22:45;6.10;;;0.70;;
69900;SDS011;57183;50.930;5.406;2022-10-22T14:25:16;3.17;;;1.23;;
69900;SDS011;57183;50.930;5.406;2022-10-22T14:27:44;3.65;;;0.60;;
69900;SDS011;57183;50.930;5.406;2022-10-22T14:30:14;5.30;;;0.85;;
69900;SDS011;57183;50.930;5.406;2022-10-22T14:32:41;4.03;;;0.88;;
69900;SDS011;57183;50.930;5.406;2022-10-22T14:35:09;2.35;;;0.40;;
69900;SDS011;57183;50.930;5.406;2022-10-22T14:37:37;3.70;;;0.55;;
69900;SDS011;57183;50.930;5.406;2022-10-22T14:40:03;3.35;;;0.43;;
69900;SDS011;57183;50.930;5.406;2022-10-22T14:42:30;3.45;;;1.08;;
69900;SDS011;57183;50.930;5.406;2022-10-22T14:44:57;3.15;;;0.60;;
69900;SDS011;57183;50.930;5.406;2022-10-22T14:47:22;3.35;;;0.55;;
69900;SDS011;57183;50.930;5.406;2022-10-22T14:49:48;3.55;;;0.73;;
69900;SDS011;57183;50.930;5.406;2022-10-22T14:52:14;5.43;;;0.60;;
69900;SDS011;57183;50.930;5.406;2022-10-22T14:54:39;3.65;;;0.50;;
69900;SDS011;57183;50.930;5.406;2022-10-22T14:57:05;7.28;;;1.10;;
69900;SDS011;57183;50.930;5.406;2022-10-22T14:59:30;5.63;;;0.85;;
69900;SDS011;57183;50.930;5.406;2022-10-22T15:01:56;2.40;;;0.55;;
69900;SDS011;57183;50.930;5.406;2022-10-22T15:04:22;1.50;;;0.70;;
69900;SDS011;57183;50.930;5.406;2022-10-22T15:06:50;3.00;;;0.50;;
69900;SDS011;57183;50.930;5.406;2022-10-22T15:09:20;7.00;;;2.13;;
69900;SDS011;57183;50.930;5.406;2022-10-22T15:11:46;2.78;;;0.60;;
69900;SDS011;57183;50.930;5.406;2022-10-22T15:14:12;4.32;;;0.75;;
69900;SDS011;57183;50.930;5.406;2022-10-22T15:16:39;1.98;;;0.50;;
69900;SDS011;57183;50.930;5.406;2022-10-22T15:19:05;3.20;;;0.60;;
69900;SDS011;57183;50.930;5.406;2022-10-22T15:21:31;2.33;;;0.63;;
69900;SDS011;57183;50.930;5.406;2022-10-22T15:23:56;2.42;;;0.60;;
69900;SDS011;57183;50.930;5.406;2022-10-22T15:26:22;1.75;;;0.50;;
69900;SDS011;57183;50.930;5.406;2022-10-22T15:28:48;2.92;;;0.88;;
69900;SDS011;57183;50.930;5.406;2022-10-22T15:31:14;1.88;;;0.70;;
69900;SDS011;57183;50.930;5.406;2022-10-22T15:33:41;4.45;;;1.20;;
69900;SDS011;57183;50.930;5.406;2022-10-22T15:36:11;5.40;;;0.85;;
69900;SDS011;57183;50.930;5.406;2022-10-22T15:38:38;6.43;;;0.70;;
69900;SDS011;57183;50.930;5.406;2022-10-22T15:41:05;5.25;;;0.60;;
69900;SDS011;57183;50.930;5.406;2022-10-22T15:43:32;2.90;;;0.60;;
69900;SDS011;57183;50.930;5.406;2022-10-22T15:48:53;3.45;;;0.90;;
69900;SDS011;57183;50.930;5.406;2022-10-22T15:51:19;5.38;;;0.80;;
69900;SDS011;57183;50.930;5.406;2022-10-22T15:53:52;4.00;;;1.20;;
69900;SDS011;57183;50.930;5.406;2022-10-22T15:56:19;7.70;;;1.60;;
69900;SDS011;57183;50.930;5.406;2022-10-22T15:58:45;2.45;;;0.70;;
69900;SDS011;57183;50.930;5.406;2022-10-22T16:01:12;2.97;;;0.90;;
69900;SDS011;57183;50.930;5.406;2022-10-22T16:03:38;4.45;;;1.00;;
69900;SDS011;57183;50.930;5.406;2022-10-22T16:06:05;4.10;;;0.90;;
69900;SDS011;57183;50.930;5.406;2022-10-22T16:08:32;2.40;;;0.80;;
69900;SDS011;57183;50.930;5.406;2022-10-22T16:10:58;3.90;;;0.90;;
69900;SDS011;57183;50.930;5.406;2022-10-22T16:13:23;3.35;;;0.90;;
69900;SDS011;57183;50.930;5.406;2022-10-22T16:15:50;3.55;;;1.50;;
69900;SDS011;57183;50.930;5.406;2022-10-22T16:18:17;8.30;;;1.02;;
69900;SDS011;57183;50.930;5.406;2022-10-22T16:20:43;7.18;;;0.90;;
69900;SDS011;57183;50.930;5.406;2022-10-22T16:23:09;3.15;;;0.80;;
69900;SDS011;57183;50.930;5.406;2022-10-22T16:25:38;8.35;;;1.00;;
69900;SDS011;57183;50.930;5.406;2022-10-22T16:28:07;6.45;;;0.80;;
69900;SDS011;57183;50.930;5.406;2022-10-22T16:30:34;1.40;;;0.90;;
69900;SDS011;57183;50.930;5.406;2022-10-22T16:33:01;5.57;;;1.10;;
69900;SDS011;57183;50.930;5.406;2022-10-22T16:35:28;3.55;;;0.93;;
69900;SDS011;57183;50.930;5.406;2022-10-22T16:37:54;3.88;;;0.80;;
69900;SDS011;57183;50.930;5.406;2022-10-22T16:40:20;5.40;;;1.00;;
69900;SDS011;57183;50.930;5.406;2022-10-22T16:42:46;5.05;;;1.35;;
69900;SDS011;57183;50.930;5.406;2022-10-22T16:45:12;4.13;;;1.50;;
69900;SDS011;57183;50.930;5.406;2022-10-22T16:47:37;6.45;;;1.60;;
69900;SDS011;57183;50.930;5.406;2022-10-22T16:50:04;5.95;;;2.00;;
69900;SDS011;57183;50.930;5.406;2022-10-22T16:52:31;4.00;;;1.63;;
69900;SDS011;57183;50.930;5.406;2022-10-22T16:54:57;5.50;;;2.40;;
69900;SDS011;57183;50.930;5.406;2022-10-22T16:57:25;8.65;;;2.40;;
69900;SDS011;57183;50.930;5.406;2022-10-22T16:59:51;7.75;;;2.55;;